sensor_id;sensor_type;location;lat;lon;timestamp;pressure;altitude;pressure_sealevel;temperature;humidity
41383;BME280;27971;53.902;9.118;2023-02-02T00:05:06;101215.0;;;21.1;23.8
41383;BME280;27971;53.902;9.118;2023-02-02T00:07:08;101214.0;;;21.2;23.65
41383;BME280;27971;53.902;9.118;2023-02-02T00:09:13;101211.0;;;21.28;23.36
41383;BME280;27971;53.902;9.118;2023-02-02T00:11:13;101210.0;;;21.48;23.16
41383;BME280;27971;53.902;9.118;2023-02-02T00:13:16;101211.0;;;22.25;23.13
41383;BME280;27971;53.902;9.118;2023-02-02T00:15:18;101215.0;;;22.38;23.2
41383;BME280;27971;53.902;9.118;2023-02-02T00:17:21;101218.0;;;22.32;23.37
41383;BME280;27971;53.902;9.118;2023-02-02T00:19:25;101222.0;;;22.2;23.5
41383;BME280;27971;53.902;9.118;2023-02-02T00:21:27;101223.0;;;22.3;23.51
41383;BME280;27971;53.902;9.118;2023-02-02T00:23:29;101226.0;;;22.21;23.59
41383;BME280;27971;53.902;9.118;2023-02-02T00:25:32;101229.0;;;22.17;23.63
41383;BME280;27971;53.902;9.118;2023-02-02T00:27:39;101235.0;;;22.19;23.64
41383;BME280;27971;53.902;9.118;2023-02-02T00:29:36;101235.0;;;22.24;23.63
41383;BME280;27971;53.902;9.118;2023-02-02T00:31:38;101235.0;;;22.09;23.68
41383;BME280;27971;53.902;9.118;2023-02-02T00:33:43;101234.0;;;22.07;23.7
41383;BME280;27971;53.902;9.118;2023-02-02T00:35:45;101235.0;;;22.07;23.71
41383;BME280;27971;53.902;9.118;2023-02-02T00:37:47;101234.0;;;22.07;23.71
41383;BME280;27971;53.902;9.118;2023-02-02T00:39:55;101234.0;;;22.15;23.62
41383;BME280;27971;53.902;9.118;2023-02-02T00:41:53;101235.0;;;22.06;23.7
41383;BME280;27971;53.902;9.118;2023-02-02T00:43:55;101232.0;;;22.06;23.71
41383;BME280;27971;53.902;9.118;2023-02-02T00:45:58;101235.0;;;22.0;23.71
41383;BME280;27971;53.902;9.118;2023-02-02T00:48:01;101240.0;;;22.02;23.68
41383;BME280;27971;53.902;9.118;2023-02-02T00:50:05;101243.0;;;22.01;23.67
41383;BME280;27971;53.902;9.118;2023-02-02T00:52:06;101244.0;;;22.06;23.66
41383;BME280;27971;53.902;9.118;2023-02-02T00:54:08;101243.0;;;21.94;23.74
41383;BME280;27971;53.902;9.118;2023-02-02T00:56:11;101248.0;;;21.91;23.77
41383;BME280;27971;53.902;9.118;2023-02-02T00:58:14;101251.0;;;21.99;23.73
41383;BME280;27971;53.902;9.118;2023-02-02T01:00:19;101254.0;;;21.95;23.74
41383;BME280;27971;53.902;9.118;2023-02-02T01:02:19;101256.0;;;21.94;23.75
41383;BME280;27971;53.902;9.118;2023-02-02T01:04:23;101260.0;;;21.89;23.72
41383;BME280;27971;53.902;9.118;2023-02-02T01:06:25;101262.0;;;21.93;23.73
41383;BME280;27971;53.902;9.118;2023-02-02T01:08:28;101267.0;;;21.98;23.69
41383;BME280;27971;53.902;9.118;2023-02-02T01:10:35;101272.0;;;21.96;23.7
41383;BME280;27971;53.902;9.118;2023-02-02T01:12:34;101276.0;;;21.97;23.72
41383;BME280;27971;53.902;9.118;2023-02-02T01:14:36;101278.0;;;21.94;23.72
41383;BME280;27971;53.902;9.118;2023-02-02T01:16:40;101279.0;;;21.97;23.69
41383;BME280;27971;53.902;9.118;2023-02-02T01:18:42;101279.0;;;22.0;23.67
41383;BME280;27971;53.902;9.118;2023-02-02T01:20:45;101281.0;;;21.84;23.75
41383;BME280;27971;53.902;9.118;2023-02-02T01:22:47;101285.0;;;21.89;23.71
41383;BME280;27971;53.902;9.118;2023-02-02T01:24:50;101288.0;;;21.94;23.64
41383;BME280;27971;53.902;9.118;2023-02-02T01:26:52;101291.0;;;21.94;23.64
41383;BME280;27971;53.902;9.118;2023-02-02T01:28:55;101296.0;;;21.9;23.66
41383;BME280;27971;53.902;9.118;2023-02-02T01:31:05;101298.0;;;22.0;23.57
41383;BME280;27971;53.902;9.118;2023-02-02T01:33:01;101302.0;;;21.99;23.6
41383;BME280;27971;53.902;9.118;2023-02-02T01:35:04;101303.0;;;21.89;23.65
41383;BME280;27971;53.902;9.118;2023-02-02T01:37:07;101306.0;;;21.91;23.66
41383;BME280;27971;53.902;9.118;2023-02-02T01:39:09;101309.0;;;21.84;23.75
41383;BME280;27971;53.902;9.118;2023-02-02T01:41:13;101307.0;;;22.01;23.6
41383;BME280;27971;53.902;9.118;2023-02-02T01:43:22;101309.0;;;22.02;23.59
41383;BME280;27971;53.902;9.118;2023-02-02T01:45:22;101308.0;;;21.98;23.59
41383;BME280;27971;53.902;9.118;2023-02-02T01:47:25;101310.0;;;22.03;23.6
41383;BME280;27971;53.902;9.118;2023-02-02T01:49:22;101312.0;;;22.08;23.57
41383;BME280;27971;53.902;9.118;2023-02-02T01:51:28;101314.0;;;21.84;23.7
41383;BME280;27971;53.902;9.118;2023-02-02T01:53:27;101318.0;;;21.87;23.65
41383;BME280;27971;53.902;9.118;2023-02-02T01:55:31;101324.0;;;21.95;23.6
41383;BME280;27971;53.902;9.118;2023-02-02T01:57:36;101324.0;;;22.04;23.53
41383;BME280;27971;53.902;9.118;2023-02-02T01:59:41;101326.0;;;22.02;23.52
41383;BME280;27971;53.902;9.118;2023-02-02T02:01:39;101328.0;;;21.88;23.61
41383;BME280;27971;53.902;9.118;2023-02-02T02:03:42;101331.0;;;21.93;23.57
41383;BME280;27971;53.902;9.118;2023-02-02T02:05:48;101337.0;;;21.91;23.59
41383;BME280;27971;53.902;9.118;2023-02-02T02:09:49;101351.0;;;21.95;23.62
41383;BME280;27971;53.902;9.118;2023-02-02T02:11:53;101350.0;;;21.84;23.64
41383;BME280;27971;53.902;9.118;2023-02-02T02:13:57;101348.0;;;21.91;23.62
41383;BME280;27971;53.902;9.118;2023-02-02T02:16:08;101350.0;;;21.81;23.7
41383;BME280;27971;53.902;9.118;2023-02-02T02:18:07;101350.0;;;21.92;23.67
41383;BME280;27971;53.902;9.118;2023-02-02T02:20:33;101353.0;;;21.86;23.69
41383;BME280;27971;53.902;9.118;2023-02-02T02:22:09;101351.0;;;21.84;23.82
41383;BME280;27971;53.902;9.118;2023-02-02T02:24:33;101355.0;;;21.75;23.81
41383;BME280;27971;53.902;9.118;2023-02-02T02:26:32;101360.0;;;21.9;23.84
41383;BME280;27971;53.902;9.118;2023-02-02T02:28:48;101367.0;;;21.93;23.86
41383;BME280;27971;53.902;9.118;2023-02-02T02:30:29;101371.0;;;21.87;23.95
41383;BME280;27971;53.902;9.118;2023-02-02T02:32:25;101377.0;;;21.84;23.94
41383;BME280;27971;53.902;9.118;2023-02-02T02:34:25;101373.0;;;21.66;23.89
41383;BME280;27971;53.902;9.118;2023-02-02T02:36:29;101375.0;;;21.65;23.82
41383;BME280;27971;53.902;9.118;2023-02-02T02:38:34;101377.0;;;21.57;23.86
41383;BME280;27971;53.902;9.118;2023-02-02T02:40:33;101378.0;;;21.8;23.75
41383;BME280;27971;53.902;9.118;2023-02-02T02:42:36;101384.0;;;21.63;23.77
41383;BME280;27971;53.902;9.118;2023-02-02T02:44:35;101389.0;;;21.66;23.75
41383;BME280;27971;53.902;9.118;2023-02-02T02:46:38;101393.0;;;21.72;23.66
41383;BME280;27971;53.902;9.118;2023-02-02T02:48:43;101394.0;;;21.69;23.69
41383;BME280;27971;53.902;9.118;2023-02-02T02:50:43;101397.0;;;21.62;23.69
41383;BME280;27971;53.902;9.118;2023-02-02T02:52:46;101400.0;;;21.59;23.67
41383;BME280;27971;53.902;9.118;2023-02-02T02:54:51;101400.0;;;21.64;23.65
41383;BME280;27971;53.902;9.118;2023-02-02T02:57:00;101400.0;;;21.7;23.62
41383;BME280;27971;53.902;9.118;2023-02-02T02:59:02;101415.0;;;21.64;23.72
41383;BME280;27971;53.902;9.118;2023-02-02T03:01:04;101421.0;;;21.51;23.74
41383;BME280;27971;53.902;9.118;2023-02-02T03:03:06;101420.0;;;21.62;23.68
41383;BME280;27971;53.902;9.118;2023-02-02T03:05:11;101420.0;;;21.46;23.8
41383;BME280;27971;53.902;9.118;2023-02-02T03:07:10;101419.0;;;21.62;23.69
41383;BME280;27971;53.902;9.118;2023-02-02T03:09:10;101421.0;;;21.79;23.55
41383;BME280;27971;53.902;9.118;2023-02-02T03:11:12;101425.0;;;21.56;23.73
41383;BME280;27971;53.902;9.118;2023-02-02T03:13:14;101427.0;;;21.57;23.7
41383;BME280;27971;53.902;9.118;2023-02-02T03:15:17;101429.0;;;21.47;23.75
41383;BME280;27971;53.902;9.118;2023-02-02T03:17:18;101435.0;;;21.64;23.6
41383;BME280;27971;53.902;9.118;2023-02-02T03:19:22;101435.0;;;21.6;23.6
41383;BME280;27971;53.902;9.118;2023-02-02T03:21:24;101439.0;;;21.53;23.63
41383;BME280;27971;53.902;9.118;2023-02-02T03:23:28;101437.0;;;21.75;23.51
41383;BME280;27971;53.902;9.118;2023-02-02T03:25:30;101442.0;;;21.54;23.65
41383;BME280;27971;53.902;9.118;2023-02-02T03:27:33;101441.0;;;21.46;23.67
41383;BME280;27971;53.902;9.118;2023-02-02T03:29:36;101447.0;;;21.59;23.57
41383;BME280;27971;53.902;9.118;2023-02-02T03:31:38;101450.0;;;21.61;23.56
41383;BME280;27971;53.902;9.118;2023-02-02T03:33:41;101454.0;;;21.6;23.58
41383;BME280;27971;53.902;9.118;2023-02-02T03:35:44;101457.0;;;21.47;23.67
41383;BME280;27971;53.902;9.118;2023-02-02T03:37:46;101457.0;;;21.54;23.62
41383;BME280;27971;53.902;9.118;2023-02-02T03:39:49;101455.0;;;21.54;23.64
41383;BME280;27971;53.902;9.118;2023-02-02T03:41:52;101456.0;;;21.49;23.72
41383;BME280;27971;53.902;9.118;2023-02-02T03:43:54;101457.0;;;21.51;23.69
41383;BME280;27971;53.902;9.118;2023-02-02T03:45:59;101461.0;;;21.54;23.65
41383;BME280;27971;53.902;9.118;2023-02-02T03:48:03;101467.0;;;21.58;23.61
41383;BME280;27971;53.902;9.118;2023-02-02T03:50:09;101469.0;;;21.46;23.73
41383;BME280;27971;53.902;9.118;2023-02-02T03:52:05;101476.0;;;21.75;23.47
41383;BME280;27971;53.902;9.118;2023-02-02T03:54:08;101478.0;;;21.67;23.51
41383;BME280;27971;53.902;9.118;2023-02-02T03:56:10;101473.0;;;21.72;23.49
41383;BME280;27971;53.902;9.118;2023-02-02T03:58:14;101475.0;;;21.53;23.57
41383;BME280;27971;53.902;9.118;2023-02-02T04:00:17;101481.0;;;21.59;23.53
41383;BME280;27971;53.902;9.118;2023-02-02T04:02:19;101487.0;;;21.76;23.42
41383;BME280;27971;53.902;9.118;2023-02-02T04:04:22;101486.0;;;21.66;23.5
41383;BME280;27971;53.902;9.118;2023-02-02T04:06:25;101488.0;;;21.6;23.55
41383;BME280;27971;53.902;9.118;2023-02-02T04:08:27;101491.0;;;21.73;23.44
41383;BME280;27971;53.902;9.118;2023-02-02T04:10:30;101493.0;;;21.8;23.35
41383;BME280;27971;53.902;9.118;2023-02-02T04:12:32;101491.0;;;21.59;23.51
41383;BME280;27971;53.902;9.118;2023-02-02T04:14:34;101494.0;;;21.54;23.51
41383;BME280;27971;53.902;9.118;2023-02-02T04:16:36;101497.0;;;21.58;23.55
41383;BME280;27971;53.902;9.118;2023-02-02T04:18:40;101499.0;;;21.62;23.46
41383;BME280;27971;53.902;9.118;2023-02-02T04:20:43;101505.0;;;21.7;23.45
41383;BME280;27971;53.902;9.118;2023-02-02T04:22:46;101506.0;;;21.43;23.62
41383;BME280;27971;53.902;9.118;2023-02-02T04:24:50;101509.0;;;21.47;23.6
41383;BME280;27971;53.902;9.118;2023-02-02T04:26:53;101512.0;;;21.64;23.52
41383;BME280;27971;53.902;9.118;2023-02-02T04:28:55;101514.0;;;21.52;23.45
41383;BME280;27971;53.902;9.118;2023-02-02T04:30:57;101518.0;;;21.66;23.41
41383;BME280;27971;53.902;9.118;2023-02-02T04:33:00;101519.0;;;21.64;23.44
41383;BME280;27971;53.902;9.118;2023-02-02T04:35:03;101521.0;;;21.8;23.26
41383;BME280;27971;53.902;9.118;2023-02-02T04:37:05;101526.0;;;22.01;23.14
41383;BME280;27971;53.902;9.118;2023-02-02T04:39:10;101525.0;;;21.93;23.14
41383;BME280;27971;53.902;9.118;2023-02-02T04:41:11;101532.0;;;21.81;23.25
41383;BME280;27971;53.902;9.118;2023-02-02T04:43:14;101536.0;;;21.94;23.17
41383;BME280;27971;53.902;9.118;2023-02-02T04:45:16;101542.0;;;22.04;23.11
41383;BME280;27971;53.902;9.118;2023-02-02T04:47:18;101542.0;;;22.06;23.08
41383;BME280;27971;53.902;9.118;2023-02-02T04:49:21;101544.0;;;21.98;23.21
41383;BME280;27971;53.902;9.118;2023-02-02T04:51:23;101536.0;;;22.0;23.16
41383;BME280;27971;53.902;9.118;2023-02-02T04:53:26;101538.0;;;21.97;23.15
41383;BME280;27971;53.902;9.118;2023-02-02T04:55:29;101543.0;;;22.11;23.04
41383;BME280;27971;53.902;9.118;2023-02-02T04:57:31;101543.0;;;22.01;23.15
41383;BME280;27971;53.902;9.118;2023-02-02T04:59:34;101542.0;;;21.89;23.21
41383;BME280;27971;53.902;9.118;2023-02-02T05:01:38;101539.0;;;21.82;23.25
41383;BME280;27971;53.902;9.118;2023-02-02T05:03:40;101541.0;;;21.81;23.35
41383;BME280;27971;53.902;9.118;2023-02-02T05:05:43;101542.0;;;21.78;23.37
41383;BME280;27971;53.902;9.118;2023-02-02T05:07:46;101544.0;;;21.44;23.7
41383;BME280;27971;53.902;9.118;2023-02-02T05:09:47;101549.0;;;21.46;23.84
41383;BME280;27971;53.902;9.118;2023-02-02T05:11:51;101549.0;;;21.84;23.67
41383;BME280;27971;53.902;9.118;2023-02-02T05:13:54;101549.0;;;21.68;23.87
41383;BME280;27971;53.902;9.118;2023-02-02T05:15:56;101550.0;;;21.43;24.25
41383;BME280;27971;53.902;9.118;2023-02-02T05:18:03;101552.0;;;21.59;24.03
41383;BME280;27971;53.902;9.118;2023-02-02T05:20:01;101556.0;;;21.93;23.92
41383;BME280;27971;53.902;9.118;2023-02-02T05:22:03;101554.0;;;21.71;23.95
41383;BME280;27971;53.902;9.118;2023-02-02T05:24:06;101559.0;;;21.75;23.89
41383;BME280;27971;53.902;9.118;2023-02-02T05:26:11;101560.0;;;21.84;23.76
41383;BME280;27971;53.902;9.118;2023-02-02T05:28:11;101559.0;;;21.83;23.83
41383;BME280;27971;53.902;9.118;2023-02-02T05:30:14;101561.0;;;21.78;23.87
41383;BME280;27971;53.902;9.118;2023-02-02T05:32:17;101564.0;;;21.49;24.05
41383;BME280;27971;53.902;9.118;2023-02-02T05:34:19;101565.0;;;22.16;23.88
41383;BME280;27971;53.902;9.118;2023-02-02T05:36:22;101570.0;;;22.12;23.85
41383;BME280;27971;53.902;9.118;2023-02-02T05:38:24;101574.0;;;22.12;23.91
41383;BME280;27971;53.902;9.118;2023-02-02T05:40:26;101578.0;;;22.15;23.87
41383;BME280;27971;53.902;9.118;2023-02-02T05:42:28;101581.0;;;21.92;23.98
41383;BME280;27971;53.902;9.118;2023-02-02T05:44:31;101580.0;;;21.92;24.04
41383;BME280;27971;53.902;9.118;2023-02-02T05:46:33;101583.0;;;22.0;23.97
41383;BME280;27971;53.902;9.118;2023-02-02T05:48:36;101585.0;;;22.13;23.96
41383;BME280;27971;53.902;9.118;2023-02-02T05:50:39;101587.0;;;22.01;24.39
41383;BME280;27971;53.902;9.118;2023-02-02T05:52:42;101591.0;;;22.05;24.32
41383;BME280;27971;53.902;9.118;2023-02-02T05:54:45;101594.0;;;21.92;24.58
41383;BME280;27971;53.902;9.118;2023-02-02T05:56:49;101596.0;;;22.21;24.35
41383;BME280;27971;53.902;9.118;2023-02-02T05:58:50;101596.0;;;22.34;24.19
41383;BME280;27971;53.902;9.118;2023-02-02T06:00:54;101595.0;;;22.35;24.14
41383;BME280;27971;53.902;9.118;2023-02-02T06:02:57;101599.0;;;22.23;24.11
41383;BME280;27971;53.902;9.118;2023-02-02T06:04:59;101597.0;;;22.27;24.06
41383;BME280;27971;53.902;9.118;2023-02-02T06:07:01;101600.0;;;22.29;24.09
41383;BME280;27971;53.902;9.118;2023-02-02T06:09:04;101604.0;;;22.34;23.95
41383;BME280;27971;53.902;9.118;2023-02-02T06:11:08;101607.0;;;22.35;23.88
41383;BME280;27971;53.902;9.118;2023-02-02T06:13:09;101611.0;;;22.52;23.63
41383;BME280;27971;53.902;9.118;2023-02-02T06:15:11;101611.0;;;22.77;23.26
41383;BME280;27971;53.902;9.118;2023-02-02T06:17:13;101613.0;;;22.77;23.21
41383;BME280;27971;53.902;9.118;2023-02-02T06:19:18;101617.0;;;23.02;23.1
41383;BME280;27971;53.902;9.118;2023-02-02T06:21:19;101619.0;;;22.88;22.98
41383;BME280;27971;53.902;9.118;2023-02-02T06:23:23;101617.0;;;23.35;22.55
41383;BME280;27971;53.902;9.118;2023-02-02T06:25:25;101620.0;;;23.43;22.3
41383;BME280;27971;53.902;9.118;2023-02-02T06:27:28;101624.0;;;23.52;22.05
41383;BME280;27971;53.902;9.118;2023-02-02T06:29:30;101626.0;;;23.96;21.71
41383;BME280;27971;53.902;9.118;2023-02-02T06:31:35;101629.0;;;23.99;21.47
41383;BME280;27971;53.902;9.118;2023-02-02T06:33:36;101632.0;;;24.29;20.95
41383;BME280;27971;53.902;9.118;2023-02-02T06:35:38;101638.0;;;24.13;20.97
41383;BME280;27971;53.902;9.118;2023-02-02T06:37:41;101642.0;;;24.34;20.86
41383;BME280;27971;53.902;9.118;2023-02-02T06:39:44;101643.0;;;24.2;20.84
41383;BME280;27971;53.902;9.118;2023-02-02T06:41:46;101645.0;;;24.64;20.5
41383;BME280;27971;53.902;9.118;2023-02-02T06:43:49;101651.0;;;24.41;20.62
41383;BME280;27971;53.902;9.118;2023-02-02T06:45:51;101657.0;;;24.28;20.68
41383;BME280;27971;53.902;9.118;2023-02-02T06:47:56;101660.0;;;24.41;20.55
41383;BME280;27971;53.902;9.118;2023-02-02T06:49:56;101664.0;;;24.54;20.49
41383;BME280;27971;53.902;9.118;2023-02-02T06:51:59;101664.0;;;24.33;20.61
41383;BME280;27971;53.902;9.118;2023-02-02T06:54:02;101666.0;;;24.5;20.49
41383;BME280;27971;53.902;9.118;2023-02-02T06:56:06;101665.0;;;24.42;20.56
41383;BME280;27971;53.902;9.118;2023-02-02T06:58:08;101669.0;;;24.56;20.48
41383;BME280;27971;53.902;9.118;2023-02-02T07:00:12;101674.0;;;24.89;20.26
41383;BME280;27971;53.902;9.118;2023-02-02T07:02:14;101678.0;;;24.72;20.4
41383;BME280;27971;53.902;9.118;2023-02-02T07:04:16;101679.0;;;24.68;20.41
41383;BME280;27971;53.902;9.118;2023-02-02T07:06:20;101683.0;;;24.58;20.46
41383;BME280;27971;53.902;9.118;2023-02-02T07:08:22;101685.0;;;24.79;20.34
41383;BME280;27971;53.902;9.118;2023-02-02T07:10:24;101689.0;;;24.8;20.37
41383;BME280;27971;53.902;9.118;2023-02-02T07:12:27;101693.0;;;25.01;20.22
41383;BME280;27971;53.902;9.118;2023-02-02T07:14:29;101695.0;;;24.93;20.3
41383;BME280;27971;53.902;9.118;2023-02-02T07:16:31;101695.0;;;24.9;20.34
41383;BME280;27971;53.902;9.118;2023-02-02T07:18:34;101698.0;;;25.25;20.08
41383;BME280;27971;53.902;9.118;2023-02-02T07:20:36;101702.0;;;25.23;20.12
41383;BME280;27971;53.902;9.118;2023-02-02T07:22:40;101704.0;;;24.93;20.27
41383;BME280;27971;53.902;9.118;2023-02-02T07:24:43;101709.0;;;24.92;20.27
41383;BME280;27971;53.902;9.118;2023-02-02T07:26:45;101714.0;;;24.99;20.19
41383;BME280;27971;53.902;9.118;2023-02-02T07:28:47;101719.0;;;25.49;19.94
41383;BME280;27971;53.902;9.118;2023-02-02T07:30:50;101718.0;;;25.51;19.92
41383;BME280;27971;53.902;9.118;2023-02-02T07:32:54;101725.0;;;25.22;20.07
41383;BME280;27971;53.902;9.118;2023-02-02T07:34:56;101729.0;;;25.28;20.07
41383;BME280;27971;53.902;9.118;2023-02-02T07:36:58;101734.0;;;25.56;19.92
41383;BME280;27971;53.902;9.118;2023-02-02T07:39:03;101736.0;;;25.48;19.93
41383;BME280;27971;53.902;9.118;2023-02-02T07:41:04;101739.0;;;25.53;19.91
41383;BME280;27971;53.902;9.118;2023-02-02T07:43:07;101740.0;;;25.64;19.89
41383;BME280;27971;53.902;9.118;2023-02-02T07:45:10;101740.0;;;24.97;20.3
41383;BME280;27971;53.902;9.118;2023-02-02T07:47:12;101740.0;;;24.78;20.41
41383;BME280;27971;53.902;9.118;2023-02-02T07:49:16;101743.0;;;24.93;20.28
41383;BME280;27971;53.902;9.118;2023-02-02T07:51:17;101747.0;;;24.73;20.44
41383;BME280;27971;53.902;9.118;2023-02-02T07:53:21;101750.0;;;25.01;20.25
41383;BME280;27971;53.902;9.118;2023-02-02T07:55:23;101753.0;;;24.94;20.25
41383;BME280;27971;53.902;9.118;2023-02-02T07:57:26;101758.0;;;24.91;20.35
41383;BME280;27971;53.902;9.118;2023-02-02T07:59:28;101760.0;;;24.99;20.35
41383;BME280;27971;53.902;9.118;2023-02-02T08:01:31;101762.0;;;24.73;20.49
41383;BME280;27971;53.902;9.118;2023-02-02T08:03:34;101764.0;;;24.65;20.5
41383;BME280;27971;53.902;9.118;2023-02-02T08:05:37;101769.0;;;24.82;20.5
41383;BME280;27971;53.902;9.118;2023-02-02T08:07:39;101772.0;;;24.29;20.75
41383;BME280;27971;53.902;9.118;2023-02-02T08:09:45;101774.0;;;24.88;20.44
41383;BME280;27971;53.902;9.118;2023-02-02T08:11:45;101778.0;;;25.08;20.32
41383;BME280;27971;53.902;9.118;2023-02-02T08:13:48;101783.0;;;25.01;20.27
41383;BME280;27971;53.902;9.118;2023-02-02T08:15:50;101787.0;;;24.64;20.47
41383;BME280;27971;53.902;9.118;2023-02-02T08:17:53;101790.0;;;24.74;20.46
41383;BME280;27971;53.902;9.118;2023-02-02T08:19:56;101792.0;;;24.46;20.53
41383;BME280;27971;53.902;9.118;2023-02-02T08:21:59;101796.0;;;24.63;20.38
41383;BME280;27971;53.902;9.118;2023-02-02T08:24:03;101800.0;;;24.63;20.33
41383;BME280;27971;53.902;9.118;2023-02-02T08:26:08;101804.0;;;24.6;20.33
41383;BME280;27971;53.902;9.118;2023-02-02T08:28:08;101808.0;;;24.69;20.29
41383;BME280;27971;53.902;9.118;2023-02-02T08:30:12;101808.0;;;24.64;20.29
41383;BME280;27971;53.902;9.118;2023-02-02T08:32:12;101809.0;;;24.75;20.28
41383;BME280;27971;53.902;9.118;2023-02-02T08:34:15;101812.0;;;24.43;20.44
41383;BME280;27971;53.902;9.118;2023-02-02T08:36:19;101815.0;;;25.06;20.04
41383;BME280;27971;53.902;9.118;2023-02-02T08:38:22;101819.0;;;25.27;19.84
41383;BME280;27971;53.902;9.118;2023-02-02T08:40:23;101824.0;;;25.45;19.65
41383;BME280;27971;53.902;9.118;2023-02-02T08:44:29;101829.0;;;22.79;19.76
41383;BME280;27971;53.902;9.118;2023-02-02T08:46:32;101832.0;;;21.92;19.0
41383;BME280;27971;53.902;9.118;2023-02-02T08:48:35;101832.0;;;22.4;18.25
41383;BME280;27971;53.902;9.118;2023-02-02T08:50:37;101832.0;;;24.1;18.01
41383;BME280;27971;53.902;9.118;2023-02-02T08:52:39;101834.0;;;27.02;17.74
41383;BME280;27971;53.902;9.118;2023-02-02T08:54:42;101837.0;;;26.7;18.29
41383;BME280;27971;53.902;9.118;2023-02-02T08:56:45;101842.0;;;25.92;18.99
41383;BME280;27971;53.902;9.118;2023-02-02T08:58:49;101847.0;;;25.67;19.31
41383;BME280;27971;53.902;9.118;2023-02-02T09:00:50;101851.0;;;25.37;19.54
41383;BME280;27971;53.902;9.118;2023-02-02T09:02:52;101854.0;;;25.17;19.72
41383;BME280;27971;53.902;9.118;2023-02-02T09:04:54;101859.0;;;25.3;19.68
41383;BME280;27971;53.902;9.118;2023-02-02T09:06:58;101862.0;;;25.33;19.7
41383;BME280;27971;53.902;9.118;2023-02-02T09:09:01;101868.0;;;25.53;19.58
41383;BME280;27971;53.902;9.118;2023-02-02T09:11:04;101872.0;;;25.31;19.72
41383;BME280;27971;53.902;9.118;2023-02-02T09:13:06;101874.0;;;25.57;19.6
41383;BME280;27971;53.902;9.118;2023-02-02T09:15:09;101876.0;;;25.62;19.55
41383;BME280;27971;53.902;9.118;2023-02-02T09:17:11;101878.0;;;26.09;19.29
41383;BME280;27971;53.902;9.118;2023-02-02T09:19:14;101882.0;;;25.3;19.78
41383;BME280;27971;53.902;9.118;2023-02-02T09:21:17;101881.0;;;25.78;19.57
41383;BME280;27971;53.902;9.118;2023-02-02T09:23:24;101884.0;;;25.09;20.06
41383;BME280;27971;53.902;9.118;2023-02-02T09:25:23;101885.0;;;25.84;19.61
41383;BME280;27971;53.902;9.118;2023-02-02T09:27:25;101888.0;;;25.86;19.52
41383;BME280;27971;53.902;9.118;2023-02-02T09:29:27;101891.0;;;25.39;19.82
41383;BME280;27971;53.902;9.118;2023-02-02T09:31:32;101894.0;;;25.31;19.84
41383;BME280;27971;53.902;9.118;2023-02-02T09:33:32;101901.0;;;25.1;19.92
41383;BME280;27971;53.902;9.118;2023-02-02T09:35:35;101905.0;;;25.0;19.94
41383;BME280;27971;53.902;9.118;2023-02-02T09:37:37;101908.0;;;25.16;19.91
41383;BME280;27971;53.902;9.118;2023-02-02T09:39:39;101913.0;;;24.98;20.01
41383;BME280;27971;53.902;9.118;2023-02-02T09:44:09;101916.0;;;25.1;19.92
41383;BME280;27971;53.902;9.118;2023-02-02T09:44:27;101921.0;;;25.71;20.46
41383;BME280;27971;53.902;9.118;2023-02-02T09:46:27;101923.0;;;24.63;20.71
41383;BME280;27971;53.902;9.118;2023-02-02T09:48:27;101927.0;;;24.56;20.71
41383;BME280;27971;53.902;9.118;2023-02-02T09:50:36;101928.0;;;24.75;20.5
41383;BME280;27971;53.902;9.118;2023-02-02T09:52:29;101929.0;;;24.92;20.44
41383;BME280;27971;53.902;9.118;2023-02-02T09:54:33;101932.0;;;24.59;20.57
41383;BME280;27971;53.902;9.118;2023-02-02T09:56:38;101939.0;;;25.04;20.26
41383;BME280;27971;53.902;9.118;2023-02-02T09:58:41;101945.0;;;25.06;20.22
41383;BME280;27971;53.902;9.118;2023-02-02T10:00:43;101948.0;;;24.46;20.66
41383;BME280;27971;53.902;9.118;2023-02-02T10:02:43;101948.0;;;25.26;20.12
41383;BME280;27971;53.902;9.118;2023-02-02T10:04:48;101948.0;;;24.89;20.24
41383;BME280;27971;53.902;9.118;2023-02-02T10:06:51;101952.0;;;25.09;20.16
41383;BME280;27971;53.902;9.118;2023-02-02T10:08:54;101954.0;;;25.3;20.0
41383;BME280;27971;53.902;9.118;2023-02-02T10:10:55;101955.0;;;25.45;19.94
41383;BME280;27971;53.902;9.118;2023-02-02T10:13:00;101956.0;;;25.24;19.95
41383;BME280;27971;53.902;9.118;2023-02-02T10:15:05;101957.0;;;25.19;20.04
41383;BME280;27971;53.902;9.118;2023-02-02T10:17:23;101962.0;;;25.28;20.01
41383;BME280;27971;53.902;9.118;2023-02-02T10:19:09;101977.0;;;25.32;20.11
41383;BME280;27971;53.902;9.118;2023-02-02T10:21:11;101985.0;;;25.14;20.22
41383;BME280;27971;53.902;9.118;2023-02-02T10:23:16;101990.0;;;24.99;20.32
41383;BME280;27971;53.902;9.118;2023-02-02T10:25:14;101995.0;;;25.33;20.11
41383;BME280;27971;53.902;9.118;2023-02-02T10:27:22;101995.0;;;25.01;20.32
41383;BME280;27971;53.902;9.118;2023-02-02T10:29:29;101995.0;;;25.46;20.12
41383;BME280;27971;53.902;9.118;2023-02-02T10:31:32;101998.0;;;25.32;20.16
41383;BME280;27971;53.902;9.118;2023-02-02T10:33:32;102000.0;;;25.05;20.39
41383;BME280;27971;53.902;9.118;2023-02-02T10:35:34;102003.0;;;25.39;20.2
41383;BME280;27971;53.902;9.118;2023-02-02T10:37:34;102000.0;;;25.39;20.13
41383;BME280;27971;53.902;9.118;2023-02-02T10:39:40;102002.0;;;25.26;20.17
41383;BME280;27971;53.902;9.118;2023-02-02T10:41:39;102003.0;;;25.44;20.13
41383;BME280;27971;53.902;9.118;2023-02-02T10:43:58;102005.0;;;25.31;20.16
41383;BME280;27971;53.902;9.118;2023-02-02T10:45:42;102011.0;;;25.43;20.21
41383;BME280;27971;53.902;9.118;2023-02-02T10:47:43;102015.0;;;25.26;20.24
41383;BME280;27971;53.902;9.118;2023-02-02T10:49:46;102017.0;;;25.23;20.22
41383;BME280;27971;53.902;9.118;2023-02-02T10:51:54;102020.0;;;25.28;20.19
41383;BME280;27971;53.902;9.118;2023-02-02T10:53:53;102023.0;;;25.1;20.31
41383;BME280;27971;53.902;9.118;2023-02-02T10:55:57;102024.0;;;24.98;20.4
41383;BME280;27971;53.902;9.118;2023-02-02T10:58:04;102025.0;;;25.12;20.34
41383;BME280;27971;53.902;9.118;2023-02-02T11:00:05;102028.0;;;25.19;20.39